Time;durP1;ratioP1;P1;durP2;ratioP2;P2;SDS_P1;SDS_P2;PMS_P1;PMS_P2;Temp;Humidity;BMP_temperature;BMP_pressure;BME280_temperature;BME280_humidity;BME280_pressure;Samples;Min_cycle;Max_cycle;Signal;HPM_P1;HPM_P2
2023/09/01 00:02:06;;;;;;;44.97;41.08;;;16.60;1.00;;;;;;5031951;28;20041;-62
2023/09/01 00:04:32;;;;;;;43.45;39.60;;;16.70;1.00;;;;;;5032755;28;20049;-63
2023/09/01 00:06:59;;;;;;;43.83;40.03;;;16.60;56.60;;;;;;5037610;28;20041;-63
2023/09/01 00:09:24;;;;;;;46.85;42.08;;;16.40;99.60;;;;;;5032676;28;20056;-62
2023/09/01 00:11:50;;;;;;;43.85;40.05;;;16.30;99.90;;;;;;5032606;28;20120;-62
2023/09/01 00:14:15;;;;;;;45.03;41.13;;;16.20;99.90;;;;;;5031996;28;20095;-62
2023/09/01 00:16:41;;;;;;;46.20;42.20;;;16.20;99.90;;;;;;5031436;28;20103;-63
2023/09/01 00:19:06;;;;;;;46.45;42.63;;;16.00;99.90;;;;;;5035564;28;20487;-64
2023/09/01 00:21:32;;;;;;;46.17;42.28;;;16.10;99.90;;;;;;5038634;28;20037;-64
2023/09/01 00:23:58;;;;;;;44.15;40.28;;;15.90;1.00;;;;;;5032208;28;20099;-62
2023/09/01 00:26:23;;;;;;;45.65;41.58;;;15.70;1.00;;;;;;5033992;28;20121;-63
2023/09/01 00:28:49;;;;;;;45.83;41.95;;;15.60;15.20;;;;;;5032621;28;20095;-62
2023/09/01 00:31:16;;;;;;;44.30;40.53;;;15.90;99.90;;;;;;5031367;28;20063;-62
2023/09/01 00:33:42;;;;;;;48.30;44.35;;;15.80;99.90;;;;;;5030899;28;20448;-62
2023/09/01 00:36:07;;;;;;;50.67;46.38;;;15.90;99.90;;;;;;5028804;28;20048;-62
2023/09/01 00:38:33;;;;;;;51.35;47.10;;;15.90;99.90;;;;;;5031172;28;20475;-62
2023/09/01 00:40:58;;;;;;;51.03;46.72;;;15.60;99.90;;;;;;5030532;28;20088;-61
2023/09/01 00:43:25;;;;;;;49.40;45.20;;;15.70;99.90;;;;;;5027717;28;20037;-62
2023/09/01 00:45:50;;;;;;;48.35;44.03;;;15.60;99.90;;;;;;5030316;28;20045;-62
2023/09/01 00:48:16;;;;;;;48.83;44.65;;;15.90;99.90;;;;;;5036600;28;20049;-63
2023/09/01 00:50:46;;;;;;;49.55;45.28;;;16.00;99.90;;;;;;5031258;28;20025;-64
2023/09/01 00:53:11;;;;;;;49.38;45.08;;;15.70;99.90;;;;;;5023444;28;20099;-67
2023/09/01 00:55:37;;;;;;;52.25;47.63;;;15.90;99.90;;;;;;5029308;28;20120;-68
2023/09/01 00:58:03;;;;;;;51.60;47.03;;;16.00;99.90;;;;;;5034309;28;20072;-67
2023/09/01 01:00:32;;;;;;;50.63;46.20;;;15.80;99.90;;;;;;5031961;28;20049;-68
2023/09/01 01:03:02;;;;;;;48.38;44.42;;;15.80;99.90;;;;;;5031771;28;20052;-68
2023/09/01 01:05:43;;;;;;;48.72;44.72;;;16.00;99.90;;;;;;5030765;28;20505;-68
2023/09/01 01:08:12;;;;;;;50.38;46.15;;;15.70;99.90;;;;;;5034298;28;20095;-67
2023/09/01 01:10:44;;;;;;;50.65;46.45;;;16.00;99.90;;;;;;5031779;28;20041;-68
2023/09/01 01:13:12;;;;;;;48.70;44.55;;;15.70;99.90;;;;;;5030472;28;20064;-69
2023/09/01 01:15:39;;;;;;;50.92;46.50;;;15.60;99.90;;;;;;5027312;28;20041;-69
2023/09/01 01:18:11;;;;;;;50.00;45.70;;;15.90;99.90;;;;;;5034322;28;20511;-67
2023/09/01 01:20:45;;;;;;;51.50;47.00;;;15.80;99.90;;;;;;5028266;28;20037;-67
2023/09/01 01:23:16;;;;;;;51.38;47.03;;;15.40;99.90;;;;;;5034131;28;20416;-68
2023/09/01 01:25:50;;;;;;;54.33;49.40;;;15.80;99.90;;;;;;5033225;28;20053;-67
2023/09/01 01:28:17;;;;;;;53.03;48.55;;;15.50;99.90;;;;;;5033890;28;20041;-68
2023/09/01 01:30:43;;;;;;;52.17;47.75;;;15.60;99.90;;;;;;5030492;28;20095;-68
2023/09/01 01:33:43;;;;;;;52.35;47.95;;;15.70;99.90;;;;;;5031285;28;20038;-68
2023/09/01 01:36:38;;;;;;;51.13;46.85;;;15.80;99.90;;;;;;5031195;28;20045;-69
2023/09/01 01:39:07;;;;;;;48.72;44.67;;;15.40;99.90;;;;;;5030714;28;20033;-67
2023/09/01 01:41:43;;;;;;;49.10;45.00;;;15.50;99.90;;;;;;5026922;28;20069;-68
2023/09/01 01:44:10;;;;;;;51.33;46.63;;;15.30;99.90;;;;;;5021817;28;20549;-68
2023/09/01 01:46:37;;;;;;;49.70;45.30;;;15.30;99.90;;;;;;5033499;28;20048;-68
2023/09/01 01:49:09;;;;;;;52.22;47.63;;;15.70;99.90;;;;;;5033620;28;20115;-69
2023/09/01 01:51:34;;;;;;;51.58;47.17;;;15.30;99.90;;;;;;5029015;28;20415;-68
2023/09/01 01:54:00;;;;;;;51.60;47.10;;;15.60;99.90;;;;;;5037351;28;20041;-67
2023/09/01 01:56:26;;;;;;;52.83;48.25;;;15.70;99.90;;;;;;5030907;28;20084;-67
2023/09/01 01:58:51;;;;;;;53.35;48.90;;;15.70;99.90;;;;;;5030973;28;20057;-67
2023/09/01 02:01:17;;;;;;;52.75;48.45;;;15.80;99.90;;;;;;5027454;28;20080;-66
2023/09/01 02:03:42;;;;;;;52.22;47.90;;;15.30;99.90;;;;;;5030752;28;20032;-64
2023/09/01 02:06:08;;;;;;;54.17;49.78;;;15.60;99.90;;;;;;5024695;28;20045;-64
2023/09/01 02:08:33;;;;;;;53.92;49.20;;;15.80;99.90;;;;;;5030275;28;20088;-64
2023/09/01 02:10:59;;;;;;;54.00;49.22;;;15.80;99.90;;;;;;5028986;28;20087;-64
2023/09/01 02:13:25;;;;;;;53.17;48.67;;;15.50;99.90;;;;;;5027583;28;20080;-64
2023/09/01 02:15:54;;;;;;;52.10;47.42;;;15.80;99.90;;;;;;5021399;28;20037;-64
2023/09/01 02:18:20;;;;;;;51.25;47.15;;;16.60;99.90;;;;;;5030687;28;20038;-64
2023/09/01 02:20:46;;;;;;;51.00;46.80;;;15.90;99.90;;;;;;5030324;28;20034;-64
2023/09/01 02:23:15;;;;;;;52.17;47.78;;;15.70;99.90;;;;;;5033055;28;20037;-64
2023/09/01 02:25:41;;;;;;;52.78;48.22;;;16.00;99.90;;;;;;5023385;28;20613;-64
2023/09/01 02:28:06;;;;;;;52.67;47.95;;;15.60;99.90;;;;;;5036563;28;20124;-64
2023/09/01 02:30:32;;;;;;;52.15;47.60;;;16.00;99.90;;;;;;5029873;28;20044;-64
2023/09/01 02:32:58;;;;;;;49.25;45.15;;;16.00;99.90;;;;;;5030277;28;20056;-64
2023/09/01 02:35:23;;;;;;;50.55;46.33;;;15.80;99.90;;;;;;5029205;28;20038;-64
2023/09/01 02:37:49;;;;;;;51.40;46.97;;;15.90;99.90;;;;;;5029522;28;20040;-65
2023/09/01 02:40:15;;;;;;;51.08;46.85;;;15.40;99.90;;;;;;5025322;28;20073;-65
2023/09/01 02:42:41;;;;;;;49.80;45.58;;;15.80;99.90;;;;;;5020838;28;20033;-64
2023/09/01 02:45:12;;;;;;;49.10;44.95;;;15.50;99.90;;;;;;5033551;28;20064;-65
2023/09/01 02:47:38;;;;;;;48.58;44.47;;;15.40;99.90;;;;;;5025552;28;20053;-64
2023/09/01 02:50:04;;;;;;;48.78;44.65;;;15.40;99.90;;;;;;5054314;28;20056;-64
2023/09/01 02:52:30;;;;;;;47.40;43.47;;;15.60;99.90;;;;;;5030447;28;20052;-64
2023/09/01 02:54:56;;;;;;;50.40;46.30;;;15.20;99.90;;;;;;5035191;28;20038;-64
2023/09/01 02:57:22;;;;;;;48.95;44.85;;;15.60;99.90;;;;;;5029482;28;20060;-64
2023/09/01 02:59:48;;;;;;;50.78;46.38;;;15.60;99.90;;;;;;5028541;28;20412;-64
2023/09/01 03:02:14;;;;;;;51.38;47.03;;;15.20;99.90;;;;;;5029346;28;20045;-64
2023/09/01 03:04:39;;;;;;;47.63;43.63;;;15.00;99.90;;;;;;5030114;28;20572;-64
2023/09/01 03:07:07;;;;;;;47.88;43.78;;;15.30;99.90;;;;;;5022794;28;20100;-65
2023/09/01 03:09:32;;;;;;;46.75;42.67;;;15.50;99.90;;;;;;5030022;28;20049;-64
2023/09/01 03:11:58;;;;;;;45.97;42.20;;;15.10;99.90;;;;;;5024169;28;20546;-64
2023/09/01 03:14:24;;;;;;;47.05;43.05;;;15.60;99.90;;;;;;5030214;28;20037;-64
2023/09/01 03:16:50;;;;;;;46.40;42.42;;;15.60;99.90;;;;;;5029964;28;20574;-64
2023/09/01 03:19:16;;;;;;;46.30;42.08;;;15.00;99.90;;;;;;5028244;28;20108;-65
2023/09/01 03:21:41;;;;;;;46.88;42.65;;;15.20;99.90;;;;;;5029480;28;20096;-65
2023/09/01 03:24:07;;;;;;;46.47;42.58;;;15.10;99.90;;;;;;5030598;28;20069;-64
2023/09/01 03:26:33;;;;;;;45.00;41.30;;;15.30;99.90;;;;;;5031838;28;20107;-64
2023/09/01 03:28:58;;;;;;;43.78;40.17;;;15.30;99.90;;;;;;5029939;28;20041;-64
2023/09/01 03:31:24;;;;;;;44.58;40.97;;;14.90;99.90;;;;;;5028998;28;20041;-64
2023/09/01 03:33:50;;;;;;;44.50;40.78;;;14.80;99.90;;;;;;5024002;28;20056;-64
2023/09/01 03:36:15;;;;;;;43.33;39.80;;;15.30;99.90;;;;;;5029122;28;20467;-64
2023/09/01 03:38:41;;;;;;;42.30;38.85;;;14.80;99.90;;;;;;5029644;28;20096;-64
2023/09/01 03:41:07;;;;;;;45.85;42.15;;;15.50;99.90;;;;;;5026531;28;20041;-65
2023/09/01 03:43:33;;;;;;;44.53;40.80;;;14.90;99.90;;;;;;5022541;28;20041;-65
2023/09/01 03:45:59;;;;;;;43.85;40.17;;;14.70;99.90;;;;;;5034577;28;20037;-64
2023/09/01 03:48:25;;;;;;;45.05;41.20;;;14.70;99.90;;;;;;5029271;28;20040;-64
2023/09/01 03:51:14;;;;;;;46.25;42.33;;;14.60;99.90;;;;;;5027105;28;20478;-64
2023/09/01 03:53:41;;;;;;;44.42;40.38;;;15.30;99.90;;;;;;5025060;28;20798;-64
2023/09/01 03:56:15;;;;;;;44.50;40.88;;;15.20;99.90;;;;;;5034128;28;20045;-64
2023/09/01 03:58:40;;;;;;;43.70;39.85;;;14.50;99.90;;;;;;5038596;28;20033;-64
2023/09/01 04:01:09;;;;;;;45.10;41.25;;;14.60;99.90;;;;;;5033392;28;20719;-64
2023/09/01 04:03:35;;;;;;;45.30;41.70;;;14.70;99.90;;;;;;5024750;28;20065;-64
2023/09/01 04:06:03;;;;;;;46.58;42.08;;;15.10;99.90;;;;;;5028593;28;20525;-65
2023/09/01 04:08:28;;;;;;;46.65;42.63;;;14.50;99.90;;;;;;5026308;28;20049;-65
2023/09/01 04:10:54;;;;;;;45.78;42.08;;;14.60;99.90;;;;;;5028938;28;20037;-64
2023/09/01 04:13:20;;;;;;;42.58;39.13;;;14.30;99.90;;;;;;5030143;28;20111;-64
2023/09/01 04:15:45;;;;;;;44.72;40.88;;;14.60;99.90;;;;;;5033183;28;20112;-64
2023/09/01 04:18:11;;;;;;;44.38;40.65;;;14.40;99.90;;;;;;5027918;28;20567;-64
2023/09/01 04:20:36;;;;;;;44.70;41.10;;;14.70;99.90;;;;;;5032346;28;20029;-64
2023/09/01 04:23:02;;;;;;;46.67;42.67;;;14.50;99.90;;;;;;5032613;28;20041;-64
2023/09/01 04:25:27;;;;;;;45.20;41.55;;;14.20;99.90;;;;;;5031556;28;20485;-64
2023/09/01 04:27:53;;;;;;;44.03;40.33;;;14.20;99.90;;;;;;5027415;28;20091;-62
2023/09/01 04:30:19;;;;;;;46.15;42.45;;;14.20;99.90;;;;;;5029794;28;20499;-62
2023/09/01 04:32:46;;;;;;;47.13;43.15;;;14.70;99.90;;;;;;5032856;28;20037;-63
2023/09/01 04:35:12;;;;;;;43.88;40.42;;;14.90;99.90;;;;;;5034631;28;20403;-63
2023/09/01 04:37:38;;;;;;;45.58;42.05;;;14.50;99.90;;;;;;5028755;28;20052;-63
2023/09/01 04:40:06;;;;;;;43.05;39.47;;;14.20;99.90;;;;;;5030706;28;20033;-62
2023/09/01 04:42:33;;;;;;;45.40;41.80;;;14.80;99.90;;;;;;5028895;28;20041;-64
2023/09/01 04:44:58;;;;;;;43.80;40.15;;;14.50;99.90;;;;;;5030238;28;20073;-62
2023/09/01 04:47:24;;;;;;;48.00;44.10;;;14.20;99.90;;;;;;5040691;28;20075;-63
2023/09/01 04:49:50;;;;;;;44.83;41.13;;;15.00;99.90;;;;;;5037325;28;20080;-63
2023/09/01 04:52:15;;;;;;;46.15;42.38;;;14.20;99.90;;;;;;5032449;28;20045;-62
2023/09/01 04:54:41;;;;;;;45.13;40.80;;;14.30;99.90;;;;;;5028689;28;20034;-64
2023/09/01 04:57:06;;;;;;;46.88;43.15;;;15.00;99.90;;;;;;5025150;28;20049;-64
2023/09/01 04:59:32;;;;;;;45.70;41.95;;;14.90;99.90;;;;;;5032213;28;20064;-63
2023/09/01 05:02:01;;;;;;;46.60;42.60;;;14.50;99.90;;;;;;5032158;28;20041;-63
2023/09/01 05:04:27;;;;;;;47.67;43.80;;;14.60;99.90;;;;;;5026454;28;20041;-63
2023/09/01 05:06:52;;;;;;;48.50;44.50;;;14.30;99.90;;;;;;5031740;28;20499;-63
2023/09/01 05:09:18;;;;;;;48.63;44.60;;;15.00;99.90;;;;;;5031913;28;20038;-64
2023/09/01 05:11:44;;;;;;;47.55;43.63;;;15.20;99.90;;;;;;5032073;28;20036;-63
2023/09/01 05:14:10;;;;;;;47.03;43.20;;;15.30;99.90;;;;;;5030222;28;20057;-62
2023/09/01 05:16:35;;;;;;;47.38;43.60;;;14.50;99.90;;;;;;5030637;28;20124;-62
2023/09/01 05:19:01;;;;;;;43.78;40.38;;;15.10;99.90;;;;;;5031827;28;20037;-63
2023/09/01 05:21:26;;;;;;;45.95;41.92;;;14.50;99.90;;;;;;5031339;28;20068;-64
2023/09/01 05:23:52;;;;;;;45.78;42.00;;;14.60;99.90;;;;;;5031277;28;20415;-63
2023/09/01 05:26:18;;;;;;;47.25;43.45;;;15.00;99.90;;;;;;5032458;28;20055;-64
2023/09/01 05:28:43;;;;;;;46.60;42.88;;;14.60;99.90;;;;;;5031629;28;20037;-63
2023/09/01 05:31:09;;;;;;;47.95;44.08;;;15.00;99.90;;;;;;5031344;28;20034;-62
2023/09/01 05:33:34;;;;;;;48.80;44.67;;;15.50;99.90;;;;;;5034263;28;20044;-65
2023/09/01 05:36:00;;;;;;;47.13;43.03;;;14.90;99.90;;;;;;5029354;28;20103;-65
2023/09/01 05:38:25;;;;;;;49.78;45.55;;;15.70;99.90;;;;;;5030584;28;20113;-64
2023/09/01 05:41:02;;;;;;;51.42;47.13;;;14.80;99.90;;;;;;5031210;28;20088;-65
2023/09/01 05:43:28;;;;;;;50.47;46.05;;;14.90;99.90;;;;;;5030790;28;20049;-65
2023/09/01 05:45:54;;;;;;;51.45;47.05;;;15.00;99.90;;;;;;5029004;28;20037;-64
2023/09/01 05:48:19;;;;;;;50.55;46.55;;;15.30;99.90;;;;;;5032634;28;20116;-65
2023/09/01 05:50:45;;;;;;;49.90;45.80;;;15.90;99.90;;;;;;5027596;28;20065;-65
2023/09/01 05:53:11;;;;;;;51.58;47.08;;;15.50;99.90;;;;;;5030018;28;20044;-65
2023/09/01 05:55:37;;;;;;;50.63;46.22;;;16.00;99.90;;;;;;5028777;28;20041;-65
2023/09/01 05:58:03;;;;;;;50.10;45.75;;;15.20;99.90;;;;;;5031109;28;20042;-65
2023/09/01 06:00:29;;;;;;;50.63;46.28;;;15.40;99.90;;;;;;5028472;28;20061;-64
2023/09/01 06:02:56;;;;;;;50.65;46.03;;;16.30;99.90;;;;;;5028424;28;20054;-65
2023/09/01 06:05:21;;;;;;;50.13;45.60;;;15.50;99.90;;;;;;5024284;28;20095;-65
2023/09/01 06:07:48;;;;;;;51.20;46.67;;;16.30;99.90;;;;;;5028424;28;20435;-65
2023/09/01 06:10:15;;;;;;;49.42;45.33;;;16.50;99.90;;;;;;5029612;28;20049;-65
2023/09/01 06:12:40;;;;;;;51.72;46.90;;;16.30;99.90;;;;;;5028265;28;20073;-65
2023/09/01 06:15:07;;;;;;;50.10;45.20;;;15.70;99.90;;;;;;5025827;28;20467;-64
2023/09/01 06:17:32;;;;;;;48.35;44.13;;;15.70;99.90;;;;;;5024326;28;20463;-64
2023/09/01 06:19:58;;;;;;;49.22;44.92;;;16.40;99.90;;;;;;5030740;28;20038;-64
2023/09/01 06:22:24;;;;;;;47.97;43.88;;;16.40;99.90;;;;;;5021033;28;20553;-64
2023/09/01 06:24:50;;;;;;;49.95;45.50;;;16.80;99.90;;;;;;5021275;28;20044;-64
2023/09/01 06:27:15;;;;;;;50.42;46.03;;;16.00;99.90;;;;;;5025723;28;20038;-64
2023/09/01 06:29:41;;;;;;;49.17;44.88;;;16.00;99.90;;;;;;5023921;28;20049;-64
2023/09/01 06:32:11;;;;;;;48.10;43.90;;;16.30;99.90;;;;;;5043450;28;20068;-64
2023/09/01 06:34:40;;;;;;;48.13;44.00;;;16.40;99.90;;;;;;5025618;28;20125;-64
2023/09/01 06:37:06;;;;;;;48.13;43.83;;;17.10;99.90;;;;;;5023097;28;20494;-64
2023/09/01 06:39:32;;;;;;;47.85;43.45;;;17.20;99.90;;;;;;5027892;28;20065;-64
2023/09/01 06:41:57;;;;;;;45.20;41.38;;;17.30;99.90;;;;;;5025714;28;20041;-64
2023/09/01 06:44:23;;;;;;;47.40;43.20;;;17.20;99.90;;;;;;5025937;28;20491;-66
2023/09/01 06:46:49;;;;;;;46.55;42.20;;;17.00;99.90;;;;;;5023711;28;20081;-65
2023/09/01 06:49:15;;;;;;;46.20;42.08;;;16.90;99.90;;;;;;5026059;28;20116;-65
2023/09/01 06:51:41;;;;;;;43.92;40.08;;;17.00;99.90;;;;;;5026505;28;20056;-66
2023/09/01 06:54:07;;;;;;;45.03;40.75;;;17.70;99.90;;;;;;5026302;28;20132;-66
2023/09/01 06:56:33;;;;;;;44.90;40.72;;;17.80;99.90;;;;;;5024806;28;20124;-66
2023/09/01 06:58:58;;;;;;;45.75;41.58;;;17.40;99.90;;;;;;5023631;28;20074;-66
2023/09/01 07:01:24;;;;;;;44.60;40.55;;;17.70;99.90;;;;;;5023942;28;20045;-66
2023/09/01 07:03:50;;;;;;;44.70;40.60;;;18.00;99.90;;;;;;5024269;28;20095;-66
2023/09/01 07:06:16;;;;;;;44.90;40.80;;;18.00;99.90;;;;;;5024427;28;20064;-66
2023/09/01 07:08:43;;;;;;;44.28;40.28;;;17.40;99.90;;;;;;5023985;28;20034;-67
2023/09/01 07:11:10;;;;;;;43.95;40.15;;;17.80;99.90;;;;;;5040248;28;20060;-65
2023/09/01 07:13:37;;;;;;;44.10;39.88;;;17.50;99.90;;;;;;5030882;28;20103;-66
2023/09/01 07:16:03;;;;;;;43.22;39.45;;;17.50;99.90;;;;;;5021877;28;20044;-66
2023/09/01 07:18:29;;;;;;;45.25;41.00;;;18.10;99.90;;;;;;5024397;28;20093;-67
2023/09/01 07:20:58;;;;;;;45.22;40.92;;;18.30;99.90;;;;;;5028530;28;20034;-66
2023/09/01 07:23:24;;;;;;;44.17;40.00;;;18.20;99.90;;;;;;5029293;28;20042;-66
2023/09/01 07:25:50;;;;;;;44.20;40.13;;;17.80;99.90;;;;;;5023431;28;20057;-66
2023/09/01 07:28:15;;;;;;;43.00;39.20;;;18.50;99.90;;;;;;5020284;28;20041;-66
2023/09/01 07:30:41;;;;;;;40.47;36.88;;;18.30;99.90;;;;;;5026024;28;20034;-66
2023/09/01 07:33:06;;;;;;;45.08;40.78;;;18.30;99.90;;;;;;5026431;28;20107;-63
2023/09/01 07:35:32;;;;;;;42.05;38.25;;;18.40;99.90;;;;;;5024850;28;20033;-63
2023/09/01 07:37:57;;;;;;;43.13;39.03;;;18.40;99.90;;;;;;5023620;28;20044;-66
2023/09/01 07:40:23;;;;;;;44.42;39.97;;;18.00;99.90;;;;;;5023074;28;20095;-66
2023/09/01 07:42:49;;;;;;;42.92;39.05;;;18.00;99.90;;;;;;5022587;28;20442;-66
2023/09/01 07:45:15;;;;;;;43.00;39.17;;;18.30;99.90;;;;;;5026408;28;20096;-66
2023/09/01 07:47:40;;;;;;;42.63;38.78;;;18.10;99.90;;;;;;5027094;28;20491;-67
2023/09/01 07:50:07;;;;;;;42.92;39.03;;;18.80;99.90;;;;;;5025587;28;20042;-66
2023/09/01 07:52:32;;;;;;;43.42;39.22;;;18.80;99.90;;;;;;5033003;28;20052;-66
2023/09/01 07:54:58;;;;;;;38.47;34.90;;;18.40;99.90;;;;;;5026935;28;20049;-69
2023/09/01 07:57:24;;;;;;;40.20;36.40;;;18.80;99.90;;;;;;5028025;28;20518;-67
2023/09/01 07:59:49;;;;;;;36.28;32.95;;;18.50;99.90;;;;;;5029944;28;20065;-69
2023/09/01 08:02:15;;;;;;;38.90;35.55;;;19.00;99.90;;;;;;5027382;28;20116;-69
2023/09/01 08:04:40;;;;;;;36.40;33.20;;;18.80;99.90;;;;;;5028936;28;20042;-69
2023/09/01 08:07:06;;;;;;;37.33;33.83;;;19.00;99.90;;;;;;5026933;28;20103;-68
2023/09/01 08:09:31;;;;;;;37.10;33.67;;;18.90;99.90;;;;;;5029637;28;20470;-68
2023/09/01 08:11:57;;;;;;;35.40;32.50;;;18.90;99.90;;;;;;5029370;28;20041;-68
2023/09/01 08:14:23;;;;;;;39.33;35.85;;;19.20;99.90;;;;;;5026384;28;20487;-68
2023/09/01 08:16:48;;;;;;;38.35;34.72;;;19.10;99.90;;;;;;5025497;28;20387;-68
2023/09/01 08:19:14;;;;;;;37.40;34.20;;;19.30;99.90;;;;;;5024812;28;20041;-68
2023/09/01 08:21:40;;;;;;;36.75;33.45;;;19.40;99.90;;;;;;5026457;28;20094;-67
2023/09/01 08:24:07;;;;;;;37.78;34.45;;;19.40;99.90;;;;;;5026302;28;20482;-66
2023/09/01 08:26:33;;;;;;;35.25;32.15;;;19.30;99.90;;;;;;5029329;28;20048;-67
2023/09/01 08:28:58;;;;;;;35.72;32.45;;;19.20;99.90;;;;;;5028531;28;20406;-67
2023/09/01 08:31:24;;;;;;;34.25;31.25;;;19.40;99.90;;;;;;5028274;28;20337;-68
2023/09/01 08:33:49;;;;;;;35.75;32.22;;;19.50;99.90;;;;;;5030602;28;20037;-68
2023/09/01 08:36:15;;;;;;;35.08;31.75;;;19.50;99.90;;;;;;5028889;28;20045;-67
2023/09/01 08:38:41;;;;;;;35.28;32.15;;;19.50;99.90;;;;;;5027964;28;20037;-67
2023/09/01 08:41:06;;;;;;;34.40;31.45;;;19.20;99.90;;;;;;5030606;28;20047;-67
2023/09/01 08:43:40;;;;;;;33.10;29.85;;;19.30;99.90;;;;;;5026187;28;20071;-67
2023/09/01 08:46:07;;;;;;;32.83;30.05;;;19.30;99.90;;;;;;5028122;28;20120;-68
2023/09/01 08:48:33;;;;;;;32.55;29.52;;;19.30;99.90;;;;;;5030041;28;20333;-67
2023/09/01 08:50:59;;;;;;;33.22;30.33;;;19.40;99.90;;;;;;5026755;28;20463;-67
2023/09/01 08:53:25;;;;;;;34.03;30.80;;;19.40;99.90;;;;;;5030230;28;20034;-67
2023/09/01 08:55:51;;;;;;;29.67;26.98;;;19.40;99.90;;;;;;5030292;28;20096;-67
2023/09/01 08:58:21;;;;;;;29.13;26.15;;;19.60;99.90;;;;;;5025573;28;20080;-66
2023/09/01 09:00:47;;;;;;;29.25;26.60;;;19.50;99.90;;;;;;5026384;28;20057;-67
2023/09/01 09:03:14;;;;;;;25.88;23.50;;;19.80;99.90;;;;;;5026511;28;20080;-65
2023/09/01 09:05:39;;;;;;;29.30;23.88;;;19.80;99.90;;;;;;5023322;28;20036;-63
2023/09/01 09:08:07;;;;;;;27.95;25.45;;;20.00;99.90;;;;;;5027117;28;20107;-62
2023/09/01 09:10:43;;;;;;;27.30;24.67;;;19.70;99.90;;;;;;5031220;28;20038;-63
2023/09/01 09:13:24;;;;;;;23.42;21.08;;;19.80;99.90;;;;;;5023984;28;20506;-64
2023/09/01 09:16:08;;;;;;;23.85;21.58;;;19.90;99.90;;;;;;5026297;28;20495;-64
2023/09/01 09:18:34;;;;;;;22.35;20.45;;;20.80;99.90;;;;;;5023774;28;20400;-64
2023/09/01 09:21:01;;;;;;;24.98;22.48;;;20.30;99.90;;;;;;5026406;28;20522;-63
2023/09/01 09:23:54;;;;;;;23.40;21.38;;;20.70;99.90;;;;;;5026240;28;20041;-62
2023/09/01 09:26:31;;;;;;;23.27;18.13;;;21.10;99.90;;;;;;5029996;28;20041;-63
2023/09/01 09:29:08;;;;;;;21.65;19.35;;;20.90;99.90;;;;;;5030541;28;20033;-64
2023/09/01 09:31:44;;;;;;;16.13;14.70;;;21.00;99.90;;;;;;5029673;28;20033;-63
2023/09/01 09:34:20;;;;;;;16.65;15.25;;;21.10;1.00;;;;;;5030133;28;20038;-63
2023/09/01 09:36:46;;;;;;;;;;;21.30;99.90;;;;;;5027547;28;20145;-63
2023/09/01 09:39:26;;;;;;;14.30;13.10;;;21.40;99.90;;;;;;5028893;28;19921;-64
2023/09/01 09:41:53;;;;;;;14.73;13.50;;;21.80;1.00;;;;;;5027437;28;20041;-64
2023/09/01 09:44:33;;;;;;;17.02;15.60;;;21.90;1.00;;;;;;5026959;28;20076;-63
2023/09/01 09:47:00;;;;;;;15.80;14.50;;;21.80;99.90;;;;;;5027200;28;20444;-64
2023/09/01 09:49:30;;;;;;;16.52;15.02;;;21.80;99.90;;;;;;5027166;28;20038;-63
2023/09/01 09:51:59;;;;;;;17.60;16.10;;;21.80;99.90;;;;;;5029485;28;20068;-63
2023/09/01 09:54:28;;;;;;;16.90;15.30;;;22.00;1.00;;;;;;5028300;28;20053;-64
2023/09/01 09:56:56;;;;;;;17.55;15.85;;;22.10;1.00;;;;;;5026650;28;20041;-63
2023/09/01 09:59:44;;;;;;;18.48;16.80;;;21.90;99.90;;;;;;5025952;28;20112;-64
2023/09/01 10:02:24;;;;;;;14.57;13.38;;;21.80;12.30;;;;;;5028166;28;20057;-63
2023/09/01 10:04:52;;;;;;;14.40;12.90;;;21.70;99.90;;;;;;5026519;28;20041;-64
2023/09/01 10:07:19;;;;;;;16.45;15.05;;;21.70;99.90;;;;;;5025195;28;20415;-62
2023/09/01 10:09:46;;;;;;;16.95;15.43;;;21.70;7.30;;;;;;5027545;28;20052;-63
2023/09/01 10:12:12;;;;;;;17.98;16.48;;;21.60;1.00;;;;;;5027437;28;20145;-63
2023/09/01 10:14:39;;;;;;;17.23;15.90;;;21.70;1.00;;;;;;5028724;28;20102;-64
2023/09/01 10:17:06;;;;;;;18.73;17.13;;;21.80;1.00;;;;;;5029661;28;20522;-62
2023/09/01 10:19:33;;;;;;;18.48;16.65;;;21.50;1.00;;;;;;5026117;28;20176;-62
2023/09/01 10:21:59;;;;;;;19.33;17.70;;;21.60;1.00;;;;;;5024785;28;20128;-61
2023/09/01 10:24:25;;;;;;;23.25;18.15;;;21.70;1.00;;;;;;5026767;28;20112;-62
2023/09/01 10:27:08;;;;;;;19.38;17.55;;;21.70;1.00;;;;;;5027496;28;20037;-62
2023/09/01 10:29:34;;;;;;;16.35;14.95;;;21.80;14.60;;;;;;5022402;28;20431;-62
2023/09/01 10:32:17;;;;;;;16.45;15.07;;;22.00;1.90;;;;;;5022226;28;20037;-61
2023/09/01 10:34:51;;;;;;;15.35;14.15;;;22.00;1.00;;;;;;5027051;28;20040;-62
2023/09/01 10:37:27;;;;;;;16.95;15.50;;;22.00;1.00;;;;;;5029128;28;20125;-62
2023/09/01 10:39:57;;;;;;;14.02;12.85;;;22.00;1.00;;;;;;5027659;28;20069;-61
2023/09/01 10:42:43;;;;;;;15.40;13.98;;;21.90;99.90;;;;;;5024717;28;20037;-61
2023/09/01 10:45:11;;;;;;;15.88;14.00;;;21.90;99.90;;;;;;5026489;28;20040;-61
2023/09/01 10:47:46;;;;;;;16.90;15.60;;;21.90;99.90;;;;;;5027453;28;20124;-61
2023/09/01 10:50:12;;;;;;;12.02;11.02;;;21.90;99.90;;;;;;5026553;28;20080;-62
2023/09/01 10:52:39;;;;;;;11.50;10.43;;;21.90;99.90;;;;;;5024572;28;20072;-62
2023/09/01 10:55:06;;;;;;;13.82;12.48;;;21.90;99.90;;;;;;5043877;28;20047;-60
2023/09/01 10:57:50;;;;;;;12.90;11.70;;;22.00;98.10;;;;;;5026024;28;20064;-61
2023/09/01 11:00:32;;;;;;;13.93;12.68;;;22.00;80.60;;;;;;5027869;28;20089;-63
2023/09/01 11:03:30;;;;;;;15.73;12.55;;;22.20;87.20;;;;;;5024864;28;20048;-62
2023/09/01 11:06:05;;;;;;;13.25;11.95;;;22.20;22.50;;;;;;5024443;28;20033;-60
2023/09/01 11:08:32;;;;;;;12.25;11.00;;;22.10;1.00;;;;;;5023921;28;20056;-62
2023/09/01 11:11:09;;;;;;;13.27;10.48;;;22.00;1.00;;;;;;5022282;28;20046;-61
2023/09/01 11:13:36;;;;;;;12.45;11.45;;;22.10;1.00;;;;;;5027220;28;20030;-61
2023/09/01 11:16:08;;;;;;;12.20;10.38;;;22.10;1.00;;;;;;5025368;28;20124;-62
2023/09/01 11:18:34;;;;;;;12.30;11.40;;;22.00;1.00;;;;;;5025640;28;20112;-62
2023/09/01 11:21:00;;;;;;;12.98;11.75;;;22.00;1.00;;;;;;5024247;28;20108;-62
2023/09/01 11:23:30;;;;;;;12.02;10.55;;;22.10;1.00;;;;;;5027701;28;20091;-63
2023/09/01 11:25:59;;;;;;;10.82;9.82;;;22.10;1.00;;;;;;5028293;28;20045;-63
2023/09/01 11:28:26;;;;;;;10.77;9.65;;;22.10;1.00;;;;;;5032452;28;20037;-63
2023/09/01 11:31:02;;;;;;;13.35;12.25;;;22.10;1.00;;;;;;5030285;28;20824;-63
2023/09/01 11:33:33;;;;;;;11.05;9.95;;;22.20;1.00;;;;;;5036131;28;20096;-63
2023/09/01 11:36:06;;;;;;;13.68;10.55;;;22.30;1.00;;;;;;5032081;28;20055;-62
2023/09/01 11:38:33;;;;;;;10.57;9.52;;;22.40;1.00;;;;;;5030164;28;20040;-65
2023/09/01 11:41:00;;;;;;;11.68;10.48;;;22.50;1.00;;;;;;5031260;28;20686;-65
2023/09/01 11:43:25;;;;;;;10.90;9.90;;;22.60;1.00;;;;;;5029891;28;20057;-67
2023/09/01 11:45:51;;;;;;;11.70;10.50;;;22.80;1.00;;;;;;5029884;28;20409;-65
2023/09/01 11:48:26;;;;;;;11.02;9.82;;;22.70;1.00;;;;;;5031899;28;20049;-65
2023/09/01 11:50:53;;;;;;;12.75;11.65;;;22.70;1.00;;;;;;5033156;28;20072;-66
2023/09/01 11:53:27;;;;;;;12.13;10.93;;;22.80;1.00;;;;;;5031236;28;20034;-65
2023/09/01 11:56:01;;;;;;;10.70;9.57;;;22.80;1.00;;;;;;5031923;28;20117;-65
2023/09/01 11:58:32;;;;;;;11.63;10.52;;;22.80;1.00;;;;;;5030735;28;20182;-65
2023/09/01 12:01:14;;;;;;;13.55;11.55;;;22.80;1.00;;;;;;5031252;28;20064;-65
2023/09/01 12:03:47;;;;;;;11.02;9.77;;;22.90;1.00;;;;;;5033997;28;20046;-65
2023/09/01 12:06:20;;;;;;;11.70;10.00;;;22.90;1.00;;;;;;5045942;28;20494;-65
2023/09/01 12:08:47;;;;;;;15.65;12.65;;;22.90;1.00;;;;;;5032052;28;20037;-65
2023/09/01 12:11:14;;;;;;;13.10;10.80;;;23.00;1.00;;;;;;5032198;28;20037;-65
2023/09/01 12:13:43;;;;;;;14.23;12.02;;;22.80;1.00;;;;;;5033365;28;20419;-65
2023/09/01 12:16:22;;;;;;;12.63;11.25;;;22.90;1.00;;;;;;5034766;28;20039;-65
2023/09/01 12:18:48;;;;;;;14.27;11.02;;;22.90;1.00;;;;;;5033107;28;20041;-66
2023/09/01 12:21:14;;;;;;;13.27;11.57;;;23.00;1.00;;;;;;5034096;28;20042;-66
2023/09/01 12:23:42;;;;;;;15.27;11.50;;;23.00;1.00;;;;;;5032466;28;20037;-65
2023/09/01 12:26:09;;;;;;;16.40;13.25;;;23.00;1.00;;;;;;5032168;28;20044;-65
2023/09/01 12:28:36;;;;;;;14.35;12.60;;;23.00;1.00;;;;;;5031150;28;20040;-66
2023/09/01 12:31:03;;;;;;;16.48;13.07;;;22.90;1.00;;;;;;5031503;28;20037;-66
2023/09/01 12:33:28;;;;;;;16.17;13.00;;;22.90;1.00;;;;;;5029692;28;20535;-65